Time;durP1;ratioP1;P1;durP2;ratioP2;P2;SDS_P1;SDS_P2;PMS_P1;PMS_P2;Temp;Humidity;BMP_temperature;BMP_pressure;BME280_temperature;BME280_humidity;BME280_pressure;Samples;Min_cycle;Max_cycle;Signal;HPM_P1;HPM_P2
2024/03/08 00:01:50;;;;;;;4.05;1.95;;;4.00;87.40;;;;;;5097196;28;20401;-74
2024/03/08 00:04:15;;;;;;;4.00;1.90;;;3.90;87.40;;;;;;5096912;28;20031;-74
2024/03/08 00:06:41;;;;;;;4.43;2.03;;;3.90;87.30;;;;;;5110427;28;20044;-74
2024/03/08 00:09:08;;;;;;;5.00;2.20;;;3.80;87.60;;;;;;5132019;27;20043;-75
2024/03/08 00:11:34;;;;;;;3.72;1.98;;;3.80;87.30;;;;;;5117751;28;20166;-74
2024/03/08 00:14:00;;;;;;;2.90;1.55;;;3.80;87.40;;;;;;5136290;28;20331;-74
2024/03/08 00:16:27;;;;;;;5.05;2.35;;;3.80;87.40;;;;;;5100371;28;20126;-74
2024/03/08 00:18:53;;;;;;;3.33;1.80;;;3.80;87.40;;;;;;5117359;28;20432;-74
2024/03/08 00:21:18;;;;;;;4.70;2.17;;;3.70;87.40;;;;;;5100375;28;20039;-75
2024/03/08 00:23:44;;;;;;;3.92;1.75;;;3.70;87.50;;;;;;5113924;28;20486;-74
2024/03/08 00:26:10;;;;;;;5.68;2.20;;;3.60;87.40;;;;;;5079955;28;20482;-75
2024/03/08 00:28:36;;;;;;;3.83;1.88;;;3.70;87.50;;;;;;5113843;28;20032;-74
2024/03/08 00:31:02;;;;;;;5.03;2.55;;;3.70;87.40;;;;;;5134460;28;20486;-75
2024/03/08 00:33:27;;;;;;;5.57;2.00;;;3.60;87.30;;;;;;5100287;28;20031;-75
2024/03/08 00:35:54;;;;;;;5.15;2.22;;;3.70;87.40;;;;;;5117627;28;20062;-74
2024/03/08 00:38:19;;;;;;;5.97;2.03;;;3.70;87.30;;;;;;5116739;28;20482;-75
2024/03/08 00:40:45;;;;;;;5.60;2.42;;;3.70;87.20;;;;;;5135731;28;20038;-75
2024/03/08 00:43:11;;;;;;;4.30;2.15;;;3.70;87.20;;;;;;5135278;28;20066;-74
2024/03/08 00:45:37;;;;;;;4.85;2.60;;;3.60;87.20;;;;;;5117446;28;20043;-75
2024/03/08 00:48:03;;;;;;;4.00;2.05;;;3.60;87.20;;;;;;5113348;28;20039;-75
2024/03/08 00:50:29;;;;;;;4.70;2.28;;;3.60;87.20;;;;;;5114838;28;20399;-75
2024/03/08 00:52:56;;;;;;;4.07;1.90;;;3.60;87.10;;;;;;5117127;28;20035;-75
2024/03/08 00:55:21;;;;;;;4.35;2.20;;;3.50;87.10;;;;;;5135596;28;20122;-74
2024/03/08 00:57:47;;;;;;;5.10;2.10;;;3.50;87.10;;;;;;5113326;28;20193;-75
2024/03/08 01:00:13;;;;;;;3.70;1.95;;;3.60;87.20;;;;;;5113584;28;20040;-75
2024/03/08 01:02:39;;;;;;;3.72;1.88;;;3.50;87.10;;;;;;5112971;28;20043;-74
2024/03/08 01:05:07;;;;;;;5.28;2.00;;;3.50;87.20;;;;;;5112718;28;20093;-74
2024/03/08 01:07:34;;;;;;;3.55;2.10;;;3.40;87.10;;;;;;5096289;28;20039;-74
2024/03/08 01:10:00;;;;;;;5.28;2.22;;;3.40;87.20;;;;;;5133144;28;20481;-75
2024/03/08 01:12:26;;;;;;;4.20;2.45;;;3.40;87.20;;;;;;5116180;28;20088;-74
2024/03/08 01:14:52;;;;;;;5.20;2.30;;;3.30;87.10;;;;;;5134858;28;20031;-75
2024/03/08 01:17:17;;;;;;;3.42;2.10;;;3.30;87.10;;;;;;5099884;28;20416;-74
2024/03/08 01:19:44;;;;;;;5.65;2.13;;;3.30;87.10;;;;;;5095863;28;20138;-75
2024/03/08 01:22:10;;;;;;;3.88;1.88;;;3.30;87.10;;;;;;5112269;28;20529;-74
2024/03/08 01:24:37;;;;;;;3.85;2.08;;;3.30;87.00;;;;;;5095684;28;20379;-74
2024/03/08 01:27:03;;;;;;;4.00;2.08;;;3.30;87.00;;;;;;5130946;28;20143;-74
2024/03/08 01:29:30;;;;;;;5.35;2.40;;;3.30;87.00;;;;;;5112701;28;20097;-75
2024/03/08 01:31:56;;;;;;;4.57;2.45;;;3.30;87.00;;;;;;5112636;28;20035;-74
2024/03/08 01:34:22;;;;;;;4.40;2.13;;;3.40;86.90;;;;;;5130886;28;20122;-74
2024/03/08 01:36:48;;;;;;;3.72;2.08;;;3.30;86.90;;;;;;5116332;28;20490;-74
2024/03/08 01:39:14;;;;;;;4.72;2.40;;;3.30;86.90;;;;;;5134386;28;20509;-74
2024/03/08 01:41:40;;;;;;;4.93;2.05;;;3.20;86.90;;;;;;5116316;28;20040;-74
2024/03/08 01:44:07;;;;;;;3.33;1.75;;;3.30;86.90;;;;;;5082135;28;20035;-74
2024/03/08 01:46:33;;;;;;;3.33;1.85;;;3.20;86.80;;;;;;5115831;28;20054;-74
2024/03/08 01:49:00;;;;;;;4.07;1.90;;;3.20;86.80;;;;;;5134274;28;20439;-74
2024/03/08 01:51:28;;;;;;;3.97;1.95;;;3.20;86.80;;;;;;5133922;28;20441;-74
2024/03/08 01:53:55;;;;;;;4.20;1.98;;;3.20;86.90;;;;;;5098827;28;20035;-74
2024/03/08 01:56:21;;;;;;;3.67;1.90;;;3.10;86.80;;;;;;5134467;28;20043;-74
2024/03/08 01:58:47;;;;;;;2.55;1.58;;;3.10;86.80;;;;;;5115935;28;20046;-74
2024/03/08 02:01:15;;;;;;;3.45;1.75;;;3.10;86.80;;;;;;5134488;28;20067;-74
2024/03/08 02:03:43;;;;;;;3.80;1.70;;;3.10;86.80;;;;;;5115298;28;20486;-74
2024/03/08 02:06:14;;;;;;;3.50;1.92;;;3.00;86.80;;;;;;5115815;28;20493;-74
2024/03/08 02:08:42;;;;;;;3.00;1.53;;;3.10;86.90;;;;;;5115162;28;20037;-74
2024/03/08 02:11:07;;;;;;;3.97;1.80;;;3.00;86.90;;;;;;5115911;28;20088;-75
2024/03/08 02:13:34;;;;;;;2.28;1.30;;;3.00;86.90;;;;;;5115237;28;20039;-74
2024/03/08 02:16:00;;;;;;;2.63;1.65;;;3.00;87.00;;;;;;5133676;28;20035;-74
2024/03/08 02:18:27;;;;;;;3.25;1.80;;;3.00;87.00;;;;;;5115179;28;20129;-74
2024/03/08 02:20:55;;;;;;;2.53;1.38;;;3.00;87.00;;;;;;5115171;28;20542;-74
2024/03/08 02:23:21;;;;;;;2.80;1.60;;;2.90;87.00;;;;;;5098107;28;20379;-74
2024/03/08 02:25:48;;;;;;;4.28;2.03;;;2.80;86.90;;;;;;5133292;28;20047;-74
2024/03/08 02:28:15;;;;;;;3.45;1.65;;;2.80;87.00;;;;;;5133940;28;20039;-74
2024/03/08 02:30:41;;;;;;;3.53;1.95;;;2.80;86.90;;;;;;5133415;28;20043;-74
2024/03/08 02:33:09;;;;;;;3.97;1.98;;;2.80;86.90;;;;;;5132319;27;20043;-74
2024/03/08 02:35:35;;;;;;;4.22;2.10;;;2.80;86.90;;;;;;5133678;28;20107;-74
2024/03/08 02:38:03;;;;;;;4.03;1.98;;;2.80;86.90;;;;;;5115132;28;20057;-75
2024/03/08 02:40:29;;;;;;;5.13;2.50;;;2.80;87.00;;;;;;5133051;28;20039;-74
2024/03/08 02:42:55;;;;;;;2.60;1.70;;;2.80;86.90;;;;;;5114894;28;20406;-74
2024/03/08 02:45:20;;;;;;;3.08;1.73;;;2.80;86.90;;;;;;5115031;28;20044;-74
2024/03/08 02:47:49;;;;;;;3.47;1.80;;;2.70;86.90;;;;;;5133663;28;20516;-74
2024/03/08 02:50:16;;;;;;;3.53;1.80;;;2.70;87.00;;;;;;5115006;28;20122;-74
2024/03/08 02:52:42;;;;;;;4.05;1.75;;;2.70;87.00;;;;;;5132972;28;20035;-74
2024/03/08 02:55:10;;;;;;;3.88;1.75;;;2.70;87.00;;;;;;5114418;28;20081;-74
2024/03/08 02:57:36;;;;;;;2.72;1.58;;;2.70;87.00;;;;;;5133397;28;20054;-74
2024/03/08 03:00:03;;;;;;;3.45;1.90;;;2.60;86.90;;;;;;5133533;28;20039;-74
2024/03/08 03:02:29;;;;;;;3.85;1.92;;;2.60;86.90;;;;;;5098037;28;20035;-74
2024/03/08 03:04:55;;;;;;;2.75;1.58;;;2.60;86.90;;;;;;5077177;28;20486;-74
2024/03/08 03:07:21;;;;;;;4.25;1.83;;;2.60;86.90;;;;;;5110914;28;20036;-74
2024/03/08 03:09:47;;;;;;;3.58;2.03;;;2.60;87.00;;;;;;5097239;28;20033;-74
2024/03/08 03:12:13;;;;;;;3.80;2.00;;;2.60;87.00;;;;;;5133329;28;20470;-74
2024/03/08 03:14:39;;;;;;;4.18;2.13;;;2.50;87.60;;;;;;5132775;28;20379;-74
2024/03/08 03:17:05;;;;;;;4.35;2.40;;;2.50;86.90;;;;;;5093957;28;20050;-73
2024/03/08 03:19:31;;;;;;;3.15;1.63;;;2.50;86.90;;;;;;5077233;28;20077;-73
2024/03/08 03:21:57;;;;;;;4.40;2.10;;;2.50;86.90;;;;;;5114328;28;20498;-73
2024/03/08 03:24:23;;;;;;;3.38;1.85;;;2.50;86.80;;;;;;5114310;28;20043;-74
2024/03/08 03:26:49;;;;;;;5.00;2.47;;;2.50;86.90;;;;;;5097107;28;20031;-74
2024/03/08 03:29:16;;;;;;;3.80;2.35;;;2.40;86.80;;;;;;5132750;28;20035;-73
2024/03/08 03:31:46;;;;;;;3.90;2.10;;;2.40;86.90;;;;;;5132625;28;20064;-74
2024/03/08 03:34:12;;;;;;;3.63;1.73;;;2.40;86.90;;;;;;5097416;28;20039;-74
2024/03/08 03:36:42;;;;;;;2.75;1.52;;;2.40;86.90;;;;;;5132832;28;20055;-74
2024/03/08 03:39:16;;;;;;;3.67;2.08;;;2.40;86.90;;;;;;5114816;28;20035;-74
2024/03/08 03:41:44;;;;;;;5.72;2.45;;;2.30;86.90;;;;;;5114082;28;20035;-73
2024/03/08 03:44:10;;;;;;;3.75;2.08;;;2.30;86.90;;;;;;5133982;27;20043;-74
2024/03/08 03:46:35;;;;;;;3.35;1.85;;;2.30;86.90;;;;;;5135884;28;20046;-74
2024/03/08 03:49:01;;;;;;;3.15;1.75;;;2.30;87.00;;;;;;5136205;28;20456;-73
2024/03/08 03:51:29;;;;;;;3.03;1.50;;;2.20;86.90;;;;;;5118211;28;20403;-73
2024/03/08 03:53:56;;;;;;;3.15;1.70;;;2.20;86.90;;;;;;5117403;28;20143;-74
2024/03/08 03:56:26;;;;;;;3.60;2.08;;;2.20;86.90;;;;;;5136344;28;20035;-74
2024/03/08 03:58:52;;;;;;;4.38;2.30;;;2.20;86.90;;;;;;5117916;28;20035;-74
2024/03/08 04:01:17;;;;;;;3.28;1.77;;;2.20;86.90;;;;;;5117322;28;20046;-74
2024/03/08 04:03:43;;;;;;;4.15;2.10;;;2.20;87.00;;;;;;5117040;28;20046;-74
2024/03/08 04:06:09;;;;;;;4.55;2.20;;;2.20;86.90;;;;;;5113732;28;20067;-74
2024/03/08 04:08:34;;;;;;;4.30;1.98;;;2.10;86.90;;;;;;5131981;28;20035;-74
2024/03/08 04:11:01;;;;;;;3.70;2.00;;;2.20;87.00;;;;;;5117369;28;20182;-74
2024/03/08 04:13:27;;;;;;;3.28;2.00;;;2.10;86.90;;;;;;5100142;28;20061;-74
2024/03/08 04:15:53;;;;;;;3.90;1.80;;;2.10;86.90;;;;;;5117910;28;20521;-74
2024/03/08 04:18:19;;;;;;;3.65;1.90;;;2.10;86.90;;;;;;5135571;28;20042;-73
2024/03/08 04:20:45;;;;;;;3.75;1.98;;;2.10;87.00;;;;;;5113836;28;20058;-74
2024/03/08 04:23:11;;;;;;;3.15;1.73;;;2.10;87.00;;;;;;5096759;28;20036;-74
2024/03/08 04:25:36;;;;;;;2.80;1.60;;;2.00;86.90;;;;;;5113598;28;20050;-74
2024/03/08 04:28:02;;;;;;;2.60;1.48;;;2.00;86.90;;;;;;5114175;28;20035;-74
2024/03/08 04:30:28;;;;;;;3.50;1.67;;;2.10;86.90;;;;;;5096542;28;20132;-73
2024/03/08 04:32:54;;;;;;;3.83;1.63;;;2.00;86.90;;;;;;5113436;28;20059;-73
2024/03/08 04:35:21;;;;;;;4.05;2.13;;;1.90;86.80;;;;;;5113376;28;20046;-73
2024/03/08 04:37:46;;;;;;;5.05;1.92;;;2.00;86.90;;;;;;5114968;28;20039;-74
2024/03/08 04:40:12;;;;;;;3.20;1.90;;;2.00;86.90;;;;;;5115053;28;20039;-73
2024/03/08 04:42:40;;;;;;;3.80;1.90;;;2.00;86.90;;;;;;5096528;28;20036;-73
2024/03/08 04:45:07;;;;;;;3.15;1.45;;;2.00;86.90;;;;;;5111406;28;20043;-73
2024/03/08 04:47:33;;;;;;;3.50;1.88;;;2.00;86.90;;;;;;5134982;28;20038;-74
2024/03/08 04:49:59;;;;;;;4.13;1.63;;;1.90;86.80;;;;;;5096101;28;20035;-73
2024/03/08 04:52:25;;;;;;;4.05;2.08;;;2.00;86.90;;;;;;5113283;28;20043;-73
2024/03/08 04:54:51;;;;;;;3.22;1.67;;;1.90;86.90;;;;;;5114620;28;20043;-74
2024/03/08 04:57:18;;;;;;;3.78;1.92;;;1.90;86.80;;;;;;5095300;28;20043;-73
2024/03/08 04:59:43;;;;;;;3.03;1.55;;;1.90;86.90;;;;;;5132129;28;20118;-73
2024/03/08 05:02:09;;;;;;;3.20;1.80;;;1.90;86.90;;;;;;5134973;28;20081;-73
2024/03/08 05:04:35;;;;;;;2.92;1.80;;;1.90;86.80;;;;;;5117107;28;20041;-73
2024/03/08 05:07:01;;;;;;;4.78;2.25;;;1.90;86.80;;;;;;5134954;28;20036;-73
2024/03/08 05:09:31;;;;;;;3.33;1.90;;;1.90;86.90;;;;;;5113116;28;20121;-73
2024/03/08 05:11:59;;;;;;;4.90;2.13;;;1.90;86.90;;;;;;5113060;28;20082;-73
2024/03/08 05:14:25;;;;;;;3.30;1.90;;;1.90;86.80;;;;;;5114825;28;20055;-73
2024/03/08 05:16:50;;;;;;;2.83;1.75;;;1.90;86.90;;;;;;5134997;28;20486;-73
2024/03/08 05:19:17;;;;;;;3.55;1.95;;;1.80;86.80;;;;;;5135248;28;20036;-73
2024/03/08 05:21:44;;;;;;;3.10;1.70;;;1.80;86.90;;;;;;5135360;28;20100;-73
2024/03/08 05:24:10;;;;;;;3.42;1.77;;;1.80;86.80;;;;;;5135268;28;20382;-74
2024/03/08 05:26:37;;;;;;;3.65;1.90;;;1.80;86.80;;;;;;5116220;28;20039;-73
2024/03/08 05:29:03;;;;;;;3.65;1.85;;;1.80;86.80;;;;;;5134751;28;20054;-74
2024/03/08 05:31:30;;;;;;;2.78;1.98;;;1.80;86.90;;;;;;5116946;28;20035;-74
2024/03/08 05:33:56;;;;;;;3.70;2.00;;;1.80;86.80;;;;;;5135053;28;20066;-73
2024/03/08 05:36:22;;;;;;;2.60;1.70;;;1.80;86.80;;;;;;5116706;28;20451;-74
2024/03/08 05:38:50;;;;;;;3.42;1.98;;;1.80;86.80;;;;;;5099139;28;20062;-73
2024/03/08 05:41:17;;;;;;;3.22;1.70;;;1.80;86.80;;;;;;5116141;28;20043;-72
2024/03/08 05:43:43;;;;;;;4.97;2.28;;;1.80;86.80;;;;;;5099139;28;20390;-72
2024/03/08 05:46:11;;;;;;;3.53;1.77;;;1.80;86.80;;;;;;5134144;28;20039;-73
2024/03/08 05:48:37;;;;;;;2.90;1.67;;;1.70;86.70;;;;;;5099238;28;20125;-73
2024/03/08 05:51:03;;;;;;;5.93;2.63;;;1.80;86.70;;;;;;5113021;28;20460;-73
2024/03/08 05:53:31;;;;;;;4.00;2.22;;;1.80;86.70;;;;;;5112526;28;20039;-73
2024/03/08 05:55:58;;;;;;;3.33;1.80;;;1.80;86.80;;;;;;5112363;28;20051;-72
2024/03/08 05:58:24;;;;;;;3.42;1.90;;;1.80;86.70;;;;;;5112385;28;20074;-72
2024/03/08 06:00:50;;;;;;;3.88;1.90;;;1.80;86.70;;;;;;5095246;28;20075;-73
2024/03/08 06:03:16;;;;;;;3.55;1.67;;;1.80;86.70;;;;;;5113719;28;20565;-72
2024/03/08 06:05:41;;;;;;;3.65;1.92;;;1.80;86.70;;;;;;5078143;28;20132;-73
2024/03/08 06:08:07;;;;;;;2.85;1.65;;;1.80;86.70;;;;;;5112168;28;20126;-72
2024/03/08 06:10:33;;;;;;;3.47;1.80;;;1.80;86.70;;;;;;5112258;28;20035;-74
2024/03/08 06:12:59;;;;;;;4.43;2.15;;;1.80;86.70;;;;;;5115512;28;20043;-72
2024/03/08 06:15:26;;;;;;;4.38;2.13;;;1.80;86.60;;;;;;5134437;28;20044;-73
2024/03/08 06:17:53;;;;;;;3.30;1.92;;;1.80;87.30;;;;;;5134397;28;20039;-73
2024/03/08 06:20:19;;;;;;;3.80;1.90;;;1.70;86.60;;;;;;5115816;28;20035;-74
2024/03/08 06:22:44;;;;;;;3.50;1.98;;;1.70;86.60;;;;;;5133950;28;20073;-73
2024/03/08 06:25:15;;;;;;;3.72;2.00;;;1.80;86.60;;;;;;5115689;28;20088;-73
2024/03/08 06:27:42;;;;;;;3.83;2.27;;;1.80;86.60;;;;;;5116285;28;20081;-75
2024/03/08 06:30:10;;;;;;;5.35;2.45;;;1.80;86.60;;;;;;5115154;28;20388;-74
2024/03/08 06:32:37;;;;;;;4.10;2.20;;;1.80;86.60;;;;;;5134133;28;20042;-73
2024/03/08 06:35:06;;;;;;;3.63;2.13;;;1.80;86.60;;;;;;5098428;28;20054;-73
2024/03/08 06:37:33;;;;;;;4.10;2.00;;;1.80;86.60;;;;;;5133699;28;20561;-73
2024/03/08 06:39:59;;;;;;;4.68;2.08;;;1.80;86.50;;;;;;5133635;28;20043;-73
2024/03/08 06:42:24;;;;;;;3.85;1.88;;;1.80;86.50;;;;;;5133531;28;20042;-72
2024/03/08 06:44:50;;;;;;;4.13;1.90;;;1.80;86.50;;;;;;5133658;28;20043;-73
2024/03/08 06:47:16;;;;;;;4.10;2.15;;;1.90;86.50;;;;;;5134010;28;20062;-73
2024/03/08 06:49:43;;;;;;;4.13;2.30;;;1.80;86.50;;;;;;5115527;28;20047;-73
2024/03/08 06:52:10;;;;;;;4.18;1.95;;;1.90;86.50;;;;;;5096955;28;20402;-73
2024/03/08 06:54:36;;;;;;;3.53;1.90;;;2.00;86.50;;;;;;5133765;28;20099;-73
2024/03/08 06:57:04;;;;;;;4.93;2.20;;;1.90;86.40;;;;;;5111961;28;20044;-73
2024/03/08 06:59:31;;;;;;;4.57;2.13;;;1.90;86.40;;;;;;5133450;28;20039;-73
2024/03/08 07:01:59;;;;;;;4.25;2.17;;;2.00;86.40;;;;;;5133484;28;20371;-72
2024/03/08 07:04:29;;;;;;;4.65;2.40;;;2.00;86.30;;;;;;5133598;28;20037;-74
2024/03/08 07:06:55;;;;;;;4.88;2.38;;;2.00;86.20;;;;;;5133128;28;20039;-75
2024/03/08 07:09:21;;;;;;;4.72;2.45;;;2.10;86.20;;;;;;5114714;28;20490;-75
2024/03/08 07:11:47;;;;;;;4.97;2.72;;;2.10;86.10;;;;;;5111187;28;20051;-75
2024/03/08 07:14:15;;;;;;;3.65;2.15;;;2.10;86.00;;;;;;5111415;28;20044;-75
2024/03/08 07:16:41;;;;;;;4.30;2.25;;;2.20;86.00;;;;;;5112635;28;20513;-75
2024/03/08 07:19:07;;;;;;;4.10;2.17;;;2.30;86.00;;;;;;5133027;27;20390;-75
2024/03/08 07:21:33;;;;;;;5.10;2.63;;;2.20;85.80;;;;;;5133327;28;20035;-75
2024/03/08 07:24:18;;;;;;;4.03;2.38;;;2.30;85.80;;;;;;5132940;28;20039;-74
2024/03/08 07:26:44;;;;;;;6.03;2.80;;;2.30;85.70;;;;;;5132820;28;20047;-74
2024/03/08 07:29:09;;;;;;;5.05;2.63;;;2.40;85.60;;;;;;5132761;28;20046;-75
2024/03/08 07:31:50;;;;;;;5.63;2.90;;;2.40;85.50;;;;;;5115236;28;20114;-74
2024/03/08 07:34:16;;;;;;;4.88;2.28;;;2.40;85.50;;;;;;5114413;28;20055;-74
2024/03/08 07:36:42;;;;;;;6.15;2.45;;;2.50;85.50;;;;;;5111013;28;20059;-74
2024/03/08 07:39:11;;;;;;;4.47;2.30;;;2.50;85.30;;;;;;5128783;28;20035;-74
2024/03/08 07:41:39;;;;;;;4.28;2.67;;;2.50;85.30;;;;;;5115466;28;20087;-75
2024/03/08 07:44:06;;;;;;;5.25;2.45;;;2.60;85.30;;;;;;5115245;28;20039;-74
2024/03/08 07:46:34;;;;;;;4.18;2.38;;;2.60;85.20;;;;;;5114279;28;20065;-74
2024/03/08 07:48:59;;;;;;;6.07;3.08;;;2.70;85.10;;;;;;5132713;28;20033;-75
2024/03/08 07:51:25;;;;;;;5.03;2.70;;;2.80;85.10;;;;;;5133105;28;20127;-75
2024/03/08 07:53:51;;;;;;;4.75;2.45;;;2.80;85.00;;;;;;5114471;28;20031;-74
2024/03/08 07:56:18;;;;;;;6.07;2.65;;;2.90;85.00;;;;;;5132914;28;20504;-74
2024/03/08 07:58:44;;;;;;;5.32;2.67;;;2.90;84.90;;;;;;5114351;28;20039;-75
2024/03/08 08:01:18;;;;;;;5.63;2.70;;;3.00;84.70;;;;;;5110724;28;20074;-75
2024/03/08 08:03:45;;;;;;;4.60;2.38;;;3.10;84.70;;;;;;5112493;28;20475;-75
2024/03/08 08:06:15;;;;;;;5.40;2.67;;;3.20;84.70;;;;;;5112161;28;20540;-75
2024/03/08 08:08:42;;;;;;;5.88;2.67;;;3.30;84.60;;;;;;5115740;28;20039;-74
2024/03/08 08:11:08;;;;;;;4.57;2.25;;;3.30;85.00;;;;;;5132168;28;20482;-75
2024/03/08 08:13:36;;;;;;;5.80;2.75;;;3.40;84.30;;;;;;5113719;28;20398;-75
2024/03/08 08:16:02;;;;;;;4.25;2.20;;;3.50;84.20;;;;;;5113759;28;20039;-74
2024/03/08 08:18:29;;;;;;;4.70;2.38;;;3.70;84.10;;;;;;5113948;28;20051;-74
2024/03/08 08:20:55;;;;;;;4.55;2.50;;;3.70;83.90;;;;;;5111579;28;20043;-75
2024/03/08 08:23:21;;;;;;;5.93;2.72;;;3.80;83.80;;;;;;5132489;28;20031;-74
2024/03/08 08:25:49;;;;;;;4.72;2.40;;;3.90;84.40;;;;;;5113561;28;20069;-75
2024/03/08 08:28:18;;;;;;;5.05;2.40;;;4.00;83.80;;;;;;5110113;28;20039;-76
2024/03/08 08:30:45;;;;;;;5.07;2.40;;;4.10;83.70;;;;;;5126798;27;20031;-75
2024/03/08 08:33:10;;;;;;;6.47;3.22;;;4.10;83.60;;;;;;5117870;28;20043;-73
2024/03/08 08:35:37;;;;;;;6.78;3.45;;;4.20;83.60;;;;;;5117223;28;20126;-73
2024/03/08 08:38:04;;;;;;;5.30;2.22;;;4.30;83.50;;;;;;5055281;28;20044;-73
2024/03/08 08:40:31;;;;;;;6.10;3.00;;;4.40;83.50;;;;;;5072948;28;20032;-73
2024/03/08 08:42:58;;;;;;;6.05;2.95;;;4.50;83.40;;;;;;5072515;28;20090;-73
2024/03/08 08:45:24;;;;;;;5.80;2.63;;;4.60;83.30;;;;;;5038742;28;20143;-73
2024/03/08 08:47:49;;;;;;;5.78;2.92;;;4.70;83.20;;;;;;5038669;28;20128;-74
2024/03/08 08:50:16;;;;;;;6.53;3.13;;;4.80;83.10;;;;;;5072496;28;20041;-73
2024/03/08 08:52:43;;;;;;;5.43;2.72;;;4.90;82.90;;;;;;5055468;28;20098;-73
2024/03/08 08:55:14;;;;;;;6.20;2.80;;;4.90;82.90;;;;;;5022904;28;20044;-73
2024/03/08 08:57:40;;;;;;;6.05;2.90;;;5.00;82.80;;;;;;5056043;28;20052;-72
2024/03/08 09:00:09;;;;;;;5.63;2.70;;;5.20;82.80;;;;;;5072013;28;20492;-72
2024/03/08 09:02:34;;;;;;;5.25;2.60;;;5.30;82.80;;;;;;5038943;28;20040;-73
2024/03/08 09:05:01;;;;;;;5.38;2.88;;;5.30;82.70;;;;;;5055364;28;20049;-73
2024/03/08 09:07:28;;;;;;;6.22;3.08;;;5.40;82.50;;;;;;5038667;28;20037;-73
2024/03/08 09:09:57;;;;;;;4.50;2.50;;;5.50;82.30;;;;;;5108219;28;20063;-72
2024/03/08 09:12:24;;;;;;;5.05;3.13;;;5.60;82.20;;;;;;5116138;28;20054;-73
2024/03/08 09:14:49;;;;;;;4.35;2.40;;;5.70;82.20;;;;;;5116390;28;20069;-73
2024/03/08 09:17:20;;;;;;;5.10;2.65;;;5.80;82.10;;;;;;5134907;28;20043;-72
2024/03/08 09:19:47;;;;;;;5.28;2.78;;;5.90;82.20;;;;;;5134851;28;20043;-73
2024/03/08 09:22:13;;;;;;;5.00;2.85;;;6.00;82.00;;;;;;5134733;28;20046;-72
2024/03/08 09:24:39;;;;;;;5.40;3.00;;;6.10;81.90;;;;;;5083313;28;20058;-73
2024/03/08 09:27:05;;;;;;;5.78;3.10;;;6.20;81.90;;;;;;5116252;28;20043;-73
2024/03/08 09:29:31;;;;;;;6.18;3.20;;;6.20;81.80;;;;;;5135182;28;20061;-73
2024/03/08 09:31:57;;;;;;;5.65;2.85;;;6.30;81.80;;;;;;5135019;28;20035;-72
2024/03/08 09:34:23;;;;;;;3.63;2.15;;;6.40;81.80;;;;;;5134480;28;20039;-72
2024/03/08 09:36:50;;;;;;;4.75;2.65;;;6.50;81.70;;;;;;5116375;28;20439;-72
2024/03/08 09:39:16;;;;;;;4.35;2.38;;;6.60;81.60;;;;;;5134292;28;20070;-71
2024/03/08 09:41:43;;;;;;;5.88;3.03;;;6.70;81.60;;;;;;5134157;27;20035;-72
2024/03/08 09:44:09;;;;;;;5.15;2.80;;;6.80;81.50;;;;;;5134350;28;20091;-73
2024/03/08 09:46:35;;;;;;;4.78;2.58;;;6.90;81.30;;;;;;5116087;28;20474;-73
2024/03/08 09:49:02;;;;;;;3.80;2.20;;;6.90;81.20;;;;;;5115730;28;20145;-71
2024/03/08 09:51:29;;;;;;;4.55;2.60;;;6.90;81.20;;;;;;5134229;28;20043;-72
2024/03/08 09:53:54;;;;;;;5.38;2.72;;;7.00;81.20;;;;;;5099038;28;20405;-72
2024/03/08 09:56:23;;;;;;;5.95;3.25;;;7.10;81.10;;;;;;5134534;28;20035;-72
2024/03/08 09:59:07;;;;;;;5.35;2.65;;;7.10;81.00;;;;;;5134446;28;20508;-71
2024/03/08 10:01:33;;;;;;;4.20;2.30;;;7.10;80.90;;;;;;5134121;28;20152;-71
2024/03/08 10:03:59;;;;;;;4.15;2.53;;;7.20;81.20;;;;;;5113085;28;20063;-71
2024/03/08 10:06:25;;;;;;;5.32;2.65;;;7.20;81.20;;;;;;5112213;28;20039;-71
2024/03/08 10:08:52;;;;;;;3.90;2.22;;;7.30;81.10;;;;;;5119731;28;20057;-72
2024/03/08 10:11:18;;;;;;;4.75;2.45;;;7.30;81.00;;;;;;5134197;28;20030;-70
2024/03/08 10:13:46;;;;;;;3.83;2.10;;;7.40;80.90;;;;;;5115934;28;20046;-71
2024/03/08 10:16:12;;;;;;;5.47;2.33;;;7.40;80.90;;;;;;5134196;28;20061;-72
2024/03/08 10:18:38;;;;;;;5.30;2.67;;;7.50;80.90;;;;;;5116399;28;20061;-72
2024/03/08 10:21:07;;;;;;;5.40;3.05;;;7.50;80.90;;;;;;5115436;28;20383;-72
2024/03/08 10:23:33;;;;;;;3.80;2.20;;;7.60;80.90;;;;;;5096053;28;20118;-73
2024/03/08 10:26:14;;;;;;;5.32;2.75;;;7.80;80.80;;;;;;5111773;28;20047;-72
2024/03/08 10:28:41;;;;;;;4.68;2.22;;;7.60;80.60;;;;;;5129975;28;20031;-72
2024/03/08 10:31:07;;;;;;;4.47;2.50;;;7.70;80.60;;;;;;5134059;28;20035;-72
2024/03/08 10:33:33;;;;;;;5.38;2.47;;;7.70;80.60;;;;;;5134039;28;20091;-72
2024/03/08 10:35:59;;;;;;;4.70;2.30;;;7.70;80.50;;;;;;5099175;28;20046;-72
2024/03/08 10:38:29;;;;;;;5.10;2.83;;;7.80;80.40;;;;;;5081519;28;20039;-72
2024/03/08 10:40:55;;;;;;;5.07;2.65;;;7.90;80.30;;;;;;5116041;28;20031;-73
2024/03/08 10:43:25;;;;;;;4.82;2.58;;;8.00;80.20;;;;;;5115314;28;20122;-74
2024/03/08 10:46:01;;;;;;;5.25;2.63;;;8.00;80.10;;;;;;5115044;28;20123;-72
2024/03/08 10:48:31;;;;;;;4.32;2.63;;;8.10;80.10;;;;;;5134005;28;20416;-72
2024/03/08 10:50:59;;;;;;;4.97;2.70;;;8.10;79.80;;;;;;5110412;28;20047;-71
2024/03/08 10:53:29;;;;;;;6.00;3.20;;;8.20;79.80;;;;;;5112569;28;20032;-71
2024/03/08 10:55:57;;;;;;;6.07;2.80;;;8.20;79.70;;;;;;5111541;28;20505;-71
2024/03/08 10:58:27;;;;;;;5.53;2.80;;;8.40;79.60;;;;;;5111497;28;20376;-72
2024/03/08 11:00:53;;;;;;;5.18;2.67;;;8.40;79.50;;;;;;5111752;28;20042;-72
2024/03/08 11:03:50;;;;;;;5.38;2.83;;;8.50;79.30;;;;;;5111438;28;20050;-71
2024/03/08 11:06:22;;;;;;;5.20;2.58;;;8.60;79.20;;;;;;5130773;28;20423;-73
2024/03/08 11:08:50;;;;;;;4.22;2.50;;;8.70;79.00;;;;;;5133667;28;20035;-72
2024/03/08 11:11:27;;;;;;;4.05;2.40;;;8.80;78.90;;;;;;5133430;28;20039;-71
2024/03/08 11:13:54;;;;;;;5.32;2.65;;;8.90;78.60;;;;;;5132407;28;20051;-72
2024/03/08 11:16:43;;;;;;;5.07;2.80;;;8.90;78.60;;;;;;5133160;28;20091;-72
2024/03/08 11:19:28;;;;;;;4.95;2.88;;;9.10;78.40;;;;;;5097094;28;20093;-72
2024/03/08 11:21:59;;;;;;;5.10;2.78;;;9.10;78.20;;;;;;5113884;28;20123;-73
2024/03/08 11:24:27;;;;;;;4.53;2.58;;;9.20;78.20;;;;;;5132935;28;20051;-72
2024/03/08 11:26:57;;;;;;;5.38;2.85;;;9.30;78.10;;;;;;5097834;28;20039;-72
2024/03/08 11:29:36;;;;;;;5.70;2.85;;;9.30;77.90;;;;;;5133047;28;20509;-73
2024/03/08 11:32:16;;;;;;;5.70;3.22;;;9.40;77.80;;;;;;5132949;28;20406;-72
2024/03/08 11:34:47;;;;;;;4.45;2.55;;;9.50;77.70;;;;;;5097305;28;20038;-72
2024/03/08 11:37:14;;;;;;;5.40;2.92;;;9.50;77.60;;;;;;5097331;28;20065;-72
2024/03/08 11:39:47;;;;;;;5.32;2.80;;;9.50;77.60;;;;;;5132976;28;20073;-72
2024/03/08 11:42:12;;;;;;;5.63;3.00;;;9.60;77.40;;;;;;5132981;28;20035;-72
2024/03/08 11:44:38;;;;;;;6.18;3.22;;;9.70;77.20;;;;;;5132857;28;20475;-73
2024/03/08 11:47:10;;;;;;;5.30;3.10;;;9.80;77.10;;;;;;5132623;28;20073;-72
2024/03/08 11:49:36;;;;;;;4.53;2.60;;;9.90;77.00;;;;;;5115164;28;20088;-72
2024/03/08 11:52:02;;;;;;;4.88;2.78;;;10.00;76.90;;;;;;5132804;28;20038;-73
2024/03/08 11:54:29;;;;;;;5.35;3.10;;;10.00;76.70;;;;;;5132531;28;20027;-72
2024/03/08 11:57:00;;;;;;;5.65;3.13;;;10.10;76.50;;;;;;5113967;28;20043;-72
2024/03/08 11:59:28;;;;;;;4.90;2.88;;;10.20;76.50;;;;;;5132881;28;20060;-72
2024/03/08 12:02:06;;;;;;;5.00;2.78;;;10.20;76.20;;;;;;5114400;28;20083;-73
2024/03/08 12:04:33;;;;;;;4.85;2.80;;;10.20;76.10;;;;;;5132737;27;20039;-73
2024/03/08 12:07:02;;;;;;;4.35;2.40;;;10.30;76.10;;;;;;5136236;28;20066;-73
2024/03/08 12:09:29;;;;;;;5.00;2.97;;;10.40;75.90;;;;;;5135840;28;20042;-72
2024/03/08 12:11:55;;;;;;;4.70;2.50;;;10.40;75.90;;;;;;5097299;28;20044;-72
2024/03/08 12:14:22;;;;;;;4.75;2.72;;;10.40;75.90;;;;;;5096904;28;20032;-72
2024/03/08 12:16:51;;;;;;;4.72;2.70;;;10.50;75.90;;;;;;5115326;28;20047;-72
2024/03/08 12:19:16;;;;;;;5.50;2.92;;;10.40;75.70;;;;;;5113912;28;20465;-73
2024/03/08 12:21:48;;;;;;;5.18;2.97;;;10.40;75.60;;;;;;5079943;28;20040;-72
2024/03/08 12:24:19;;;;;;;4.60;2.65;;;10.40;75.50;;;;;;5114075;28;20048;-72
2024/03/08 12:26:48;;;;;;;4.35;2.67;;;10.50;75.70;;;;;;5132591;28;20043;-73
2024/03/08 12:29:17;;;;;;;4.15;2.33;;;10.50;75.70;;;;;;5135869;28;20035;-72
2024/03/08 12:31:43;;;;;;;5.20;2.85;;;10.60;75.60;;;;;;5135383;28;20039;-72
2024/03/08 12:34:09;;;;;;;3.90;2.45;;;10.60;75.50;;;;;;5135898;28;20050;-72
2024/03/08 12:36:37;;;;;;;4.70;2.85;;;10.70;75.20;;;;;;5135728;28;20126;-72
2024/03/08 12:39:03;;;;;;;4.90;2.92;;;10.70;75.20;;;;;;5100548;28;20046;-73
2024/03/08 12:41:29;;;;;;;4.13;2.15;;;10.70;75.20;;;;;;5114055;28;20402;-72
2024/03/08 12:43:55;;;;;;;3.30;2.22;;;10.80;75.10;;;;;;5113976;28;20101;-73
2024/03/08 12:46:22;;;;;;;5.82;3.08;;;10.80;75.10;;;;;;5114770;28;20036;-73
2024/03/08 12:48:48;;;;;;;5.38;3.05;;;10.90;74.90;;;;;;5115117;28;20039;-73
2024/03/08 12:51:15;;;;;;;4.88;2.72;;;10.90;74.80;;;;;;5135637;28;20476;-73
2024/03/08 12:53:45;;;;;;;4.80;2.97;;;10.90;74.80;;;;;;5113315;28;20027;-72
2024/03/08 12:56:12;;;;;;;4.95;2.85;;;10.90;74.70;;;;;;5114765;28;20040;-72